Main page
METAR-TAF:

METAR-TAF

Airports :

Klagenfurt Airport

Klagenfurt, Austria

latitude: 46-39N, longitude: 014-20E, elevation: 448 m

Current weather observation

The report was made 34 minutes ago, at 04:20 UTC
Wind 6 kt from the Northwest
Temperature -4°C
Humidity 74%
Pressure 1016 hPa
Visibility 10 km or more
Few clouds at a height of 18000 ft

METAR: LOWK 160420Z AUTO 31006KT 9999 FEW180 M04/M08 Q1016

Time: 05:54 (04:54 UTC)

Forecast

The report was made 5 hours and 39 minutes ago, at 23:15 UTC
Forecast valid from 16 at 00 UTC to 16 at 24 UTC
Wind 2 kt from variable directions
Visibility 10 km or more
Few clouds at a height of 6000 ft
Scattered clouds at a height of 25000 ft

TAF: LOWK 152315Z 1600/1624 VRB02KT 9999 FEW060 SCT250 TX03/1614Z TNM06/1606Z

Weather observations and forecasts of more than 4000 airports (METAR and TAF reports).

The available stations are represented by yellow and red dots on the map.

Hover mouse over dot to see the name of the station.

Then click to see weather observations and forecasts.

To change the map : click on the green buttons with a black cross to zoom in, on the green button with a dash to zoom out, or on the green arrows for adjacent maps.


METAR-TAF: